| time (UTC) | temp F | wind direction | speed MPH | gust MPH | rain 1hr in | rain 24hr in | rain mn in | humidity % | barometer mb |
| 20260504020904 | 55 | 30 | 2.0 | 4.0 | 0.00 | 0.00 | 0.00 | 56 | 1021.8 |
| 20260504020006 | 55 | 45 | 1.0 | 4.0 | 0.00 | 0.00 | 0.00 | 54 | 1021.8 |
| 20260504015405 | 54 | 69 | 1.0 | 3.0 | 0.00 | 0.00 | 0.00 | 57 | 1021.5 |
| 20260504014525 | 54 | 29 | 2.0 | 5.0 | 0.00 | 0.00 | 0.00 | 61 | 1021.6 |
| 20260504013604 | 54 | 47 | 3.0 | 6.0 | 0.00 | 0.00 | 0.00 | 63 | 1021.6 |
| 20260504011805 | 55 | 46 | 3.0 | 5.0 | 0.00 | 0.00 | 0.00 | 63 | 1021.5 |
| 20260504010906 | 53 | 46 | 2.0 | 4.0 | 0.00 | 0.00 | 0.00 | 67 | 1021.8 |
| 20260504010004 | 53 | 56 | 1.0 | 2.0 | 0.00 | 0.00 | 0.00 | 63 | 1021.8 |
| 20260504005404 | 52 | 75 | 1.0 | 3.0 | 0.00 | 0.00 | 0.00 | 67 | 1021.6 |
| 20260504004504 | 53 | 50 | 3.0 | 4.0 | 0.00 | 0.00 | 0.00 | 61 | 1021.5 |
| 20260504003625 | 56 | 30 | 3.0 | 4.0 | 0.00 | 0.00 | 0.00 | 51 | 1021.4 |
| 20260504002705 | 56 | 27 | 3.0 | 4.0 | 0.00 | 0.00 | 0.00 | 46 | 1021.4 |
| 20260504001804 | 55 | 25 | 3.0 | 4.0 | 0.00 | 0.00 | 0.00 | 51 | 1021.4 |
| 20260504000905 | 53 | 27 | 2.0 | 4.0 | 0.00 | 0.00 | 0.00 | 69 | 1021.6 |
| 20260504000007 | 52 | 28 | 2.0 | 4.0 | 0.00 | 0.00 | 0.00 | 87 | 1021.8 |
| 20260503235404 | 53 | 24 | 2.0 | 3.0 | 0.00 | 0.00 | 0.00 | 92 | 1021.6 |
| 20260503234525 | 53 | 23 | 2.0 | 3.0 | 0.00 | 0.00 | 0.00 | 92 | 1021.9 |
| 20260503233605 | 53 | 27 | 2.0 | 3.0 | 0.00 | 0.00 | 0.00 | 92 | 1022.1 |
| 20260503232725 | 53 | 27 | 2.0 | 3.0 | 0.00 | 0.00 | 0.00 | 91 | 1022.2 |
| 20260503231804 | 53 | 28 | 2.0 | 3.0 | 0.00 | 0.00 | 0.00 | 91 | 1022.3 |
| 20260503230906 | 53 | 28 | 2.0 | 3.0 | 0.00 | 0.00 | 0.00 | 90 | 1022.3 |
| 20260503230004 | 53 | 27 | 2.0 | 3.0 | 0.00 | 0.00 | 0.00 | 91 | 1022.5 |
| 20260503225416 | 53 | 24 | 2.0 | 3.0 | 0.00 | 0.00 | 0.00 | 91 | 1022.2 |
| 20260503224504 | 53 | 27 | 2.0 | 3.0 | 0.00 | 0.00 | 0.00 | 92 | 1022.6 |
| 20260503223625 | 53 | 25 | 2.0 | 3.0 | 0.00 | 0.00 | 0.00 | 92 | 1022.5 |
| 20260503222719 | 53 | 25 | 2.0 | 3.0 | 0.00 | 0.00 | 0.00 | 92 | 1023.0 |
| 20260503221805 | 53 | 26 | 2.0 | 3.0 | 0.00 | 0.00 | 0.00 | 92 | 1022.5 |
| 20260503220904 | 53 | 28 | 2.0 | 3.0 | 0.00 | 0.00 | 0.00 | 92 | 1022.8 |
| 20260503220026 | 53 | 23 | 2.0 | 3.0 | 0.00 | 0.00 | 0.00 | 92 | 1022.5 |
| 20260503215404 | 53 | 32 | 2.0 | 3.0 | 0.00 | 0.00 | 0.00 | 92 | 1022.6 |
| 20260503214505 | 53 | 31 | 2.0 | 3.0 | 0.00 | 0.00 | 0.00 | 92 | 1022.7 |
| 20260503213605 | 53 | 32 | 2.0 | 4.0 | 0.00 | 0.00 | 0.00 | 93 | 1022.4 |
| 20260503212726 | 53 | 25 | 2.0 | 3.0 | 0.00 | 0.00 | 0.00 | 93 | 1022.6 |
| 20260503211805 | 53 | 23 | 2.0 | 3.0 | 0.00 | 0.00 | 0.00 | 94 | 1022.4 |
| 20260503210904 | 53 | 33 | 2.0 | 3.0 | 0.00 | 0.00 | 0.00 | 94 | 1022.4 |
| 20260503210006 | 53 | 30 | 2.0 | 3.0 | 0.00 | 0.00 | 0.00 | 94 | 1022.5 |
| 20260503205405 | 53 | 24 | 1.0 | 3.0 | 0.00 | 0.00 | 0.00 | 94 | 1022.5 |
| 20260503204505 | 53 | 31 | 1.0 | 2.0 | 0.00 | 0.00 | 0.00 | 94 | 1022.5 |
| 20260503203604 | 53 | 26 | 1.0 | 2.0 | 0.00 | 0.00 | 0.00 | 93 | 1022.6 |
| 20260503202704 | 53 | 13 | 2.0 | 6.0 | 0.00 | 0.00 | 0.00 | 93 | 1022.5 |
| 20260503201827 | 53 | 339 | 3.0 | 6.0 | 0.00 | 0.00 | 0.00 | 93 | 1022.6 |
| 20260503200925 | 53 | 352 | 2.0 | 5.0 | 0.00 | 0.00 | 0.00 | 92 | 1022.5 |
| 20260503200025 | 53 | 14 | 2.0 | 3.0 | 0.00 | 0.00 | 0.00 | 92 | 1022.5 |
| 20260503195425 | 53 | 12 | 2.0 | 3.0 | 0.00 | 0.00 | 0.00 | 92 | 1022.3 |
| 20260503194526 | 53 | 34 | 2.0 | 3.0 | 0.00 | 0.00 | 0.00 | 91 | 1022.2 |
| 20260503193605 | 53 | 16 | 1.0 | 3.0 | 0.00 | 0.00 | 0.00 | 91 | 1022.4 |
| 20260503192708 | 54 | 36 | 1.0 | 3.0 | 0.00 | 0.00 | 0.00 | 90 | 1022.3 |
| 20260503191819 | 54 | 340 | 3.0 | 6.0 | 0.00 | 0.00 | 0.00 | 90 | 1022.2 |
| 20260503190907 | 54 | 331 | 3.0 | 6.0 | 0.00 | 0.00 | 0.00 | 89 | 1022.1 |
| 20260503190004 | 54 | 17 | 1.0 | 4.0 | 0.00 | 0.00 | 0.00 | 89 | 1021.9 |
| 20260503185404 | 54 | 17 | 1.0 | 3.0 | 0.00 | 0.00 | 0.00 | 88 | 1021.9 |
| 20260503184504 | 54 | 37 | 1.0 | 3.0 | 0.00 | 0.00 | 0.00 | 87 | 1021.9 |
| 20260503183605 | 55 | 8 | 1.0 | 5.0 | 0.00 | 0.00 | 0.00 | 86 | 1021.6 |
| 20260503182719 | 56 | 280 | 3.0 | 7.0 | 0.00 | 0.00 | 0.00 | 86 | 1021.9 |
| 20260503181806 | 56 | 296 | 4.0 | 9.0 | 0.00 | 0.00 | 0.00 | 84 | 1021.9 |
| 20260503180906 | 56 | 280 | 6.0 | 10.0 | 0.00 | 0.00 | 0.00 | 84 | 1021.9 |
| 20260503180004 | 57 | 275 | 7.0 | 11.0 | 0.00 | 0.00 | 0.00 | 83 | 1021.8 |
| 20260503175404 | 57 | 270 | 6.0 | 11.0 | 0.00 | 0.00 | 0.00 | 82 | 1021.8 |
| 20260503174504 | 58 | 294 | 5.0 | 12.0 | 0.00 | 0.00 | 0.00 | 79 | 1021.8 |
| 20260503173605 | 60 | 281 | 7.0 | 11.0 | 0.00 | 0.00 | 0.00 | 68 | 1021.6 |
| 20260503172746 | 61 | 277 | 6.0 | 11.0 | 0.00 | 0.00 | 0.00 | 61 | 1021.4 |
| 20260503171804 | 62 | 289 | 4.0 | 8.0 | 0.00 | 0.00 | 0.00 | 59 | 1021.2 |
| 20260503170904 | 63 | 291 | 3.0 | 6.0 | 0.00 | 0.00 | 0.00 | 57 | 1021.2 |
| 20260503150904 | 63 | 356 | 3.0 | 12.0 | 0.00 | 0.00 | 0.00 | 52 | 1021.9 |
| 20260503130904 | 63 | 273 | 7.0 | 17.0 | 0.00 | 0.00 | 0.00 | 57 | 1023.0 |
| 20260503080924 | 59 | 345 | 3.0 | 9.0 | 0.00 | 0.00 | 0.00 | 54 | 1023.7 |
| 20260503072703 | 58 | 332 | 3.0 | 6.0 | 0.00 | 0.00 | 0.00 | 58 | 1023.9 |
| 20260503071804 | 58 | 5 | 2.0 | 8.0 | 0.00 | 0.00 | 0.00 | 58 | 1023.8 |
| 20260503070905 | 58 | 9 | 3.0 | 10.0 | 0.00 | 0.00 | 0.00 | 59 | 1023.8 |
| 20260503054505 | 56 | 24 | 2.0 | 4.0 | 0.00 | 0.00 | 0.00 | 72 | 1023.5 |
| 20260503053626 | 56 | 30 | 2.0 | 4.0 | 0.00 | 0.00 | 0.00 | 71 | 1023.3 |
| 20260503052706 | 54 | 32 | 2.0 | 4.0 | 0.00 | 0.00 | 0.00 | 80 | 1023.4 |
| 20260503051805 | 53 | 29 | 2.0 | 4.0 | 0.00 | 0.00 | 0.00 | 88 | 1023.4 |
| 20260503050906 | 52 | 20 | 2.0 | 4.0 | 0.00 | 0.00 | 0.00 | 92 | 1023.2 |
| 20260503050026 | 52 | 29 | 3.0 | 6.0 | 0.00 | 0.00 | 0.00 | 93 | 1023.1 |
| 20260503045426 | 52 | 22 | 3.0 | 6.0 | 0.00 | 0.00 | 0.00 | 94 | 1023.1 |
| 20260503044508 | 52 | 30 | 2.0 | 5.0 | 0.00 | 0.00 | 0.00 | 94 | 1023.4 |
| 20260503043625 | 52 | 33 | 2.0 | 4.0 | 0.00 | 0.00 | 0.00 | 94 | 1023.1 |
| 20260503042706 | 51 | 33 | 2.0 | 4.0 | 0.00 | 0.00 | 0.00 | 94 | 1023.4 |
| 20260503041804 | 51 | 28 | 2.0 | 5.0 | 0.00 | 0.00 | 0.00 | 94 | 1023.4 |
| 20260503040904 | 51 | 14 | 2.0 | 6.0 | 0.00 | 0.00 | 0.00 | 94 | 1023.1 |
| 20260503040005 | 51 | 34 | 3.0 | 7.0 | 0.00 | 0.00 | 0.00 | 94 | 1023.1 |
| 20260503035404 | 51 | 32 | 3.0 | 6.0 | 0.00 | 0.00 | 0.00 | 94 | 1023.2 |
| 20260503034504 | 51 | 33 | 2.0 | 4.0 | 0.00 | 0.00 | 0.00 | 94 | 1023.1 |
| 20260503033626 | 51 | 35 | 2.0 | 4.0 | 0.00 | 0.00 | 0.00 | 93 | 1023.1 |
| 20260503032705 | 51 | 8 | 3.0 | 5.0 | 0.00 | 0.00 | 0.00 | 92 | 1023.1 |
| 20260503031804 | 51 | 35 | 2.0 | 4.0 | 0.00 | 0.00 | 0.00 | 92 | 1023.1 |
| 20260503030906 | 51 | 24 | 3.0 | 5.0 | 0.00 | 0.00 | 0.00 | 91 | 1023.1 |
| 20260503030006 | 51 | 28 | 2.0 | 5.0 | 0.00 | 0.00 | 0.00 | 91 | 1022.9 |
| 20260503025404 | 51 | 40 | 2.0 | 5.0 | 0.00 | 0.00 | 0.00 | 91 | 1023.1 |
| 20260503024527 | 51 | 54 | 2.0 | 5.0 | 0.00 | 0.00 | 0.00 | 90 | 1023.2 |
| 20260503023605 | 51 | 24 | 3.0 | 5.0 | 0.00 | 0.00 | 0.00 | 90 | 1023.3 |
| 20260503022725 | 51 | 20 | 3.0 | 5.0 | 0.00 | 0.00 | 0.00 | 90 | 1023.1 |
| 20260503021804 | 51 | 35 | 2.0 | 5.0 | 0.00 | 0.00 | 0.00 | 90 | 1023.2 |